createdAt,value
2022-10-01T00:00:18.596Z,39.70
2022-10-01T00:00:41.224Z,39.70
2022-10-01T00:01:05.548Z,39.20
2022-10-01T00:01:28.367Z,39.60
2022-10-01T00:01:51.289Z,39.70
2022-10-01T00:02:14.070Z,39.20
2022-10-01T00:02:37.975Z,39.80
2022-10-01T00:03:02.216Z,39.90
2022-10-01T00:03:26.101Z,39.90
2022-10-01T00:03:48.825Z,38.80
2022-10-01T00:04:11.499Z,38.30
2022-10-01T00:04:35.967Z,37.90
2022-10-01T00:04:58.756Z,37.30
2022-10-01T00:05:21.436Z,37.70
2022-10-01T00:05:44.239Z,37.70
2022-10-01T00:06:09.651Z,38.00
2022-10-01T00:06:32.311Z,37.70
2022-10-01T00:06:54.998Z,38.00
2022-10-01T00:07:18.556Z,38.90
2022-10-01T00:07:41.521Z,38.20
2022-10-01T00:08:04.102Z,38.80
2022-10-01T00:08:27.696Z,38.70
2022-10-01T00:08:50.748Z,38.30
2022-10-01T00:09:13.422Z,39.50
2022-10-01T00:09:36.156Z,38.90
2022-10-01T00:09:58.861Z,38.90
2022-10-01T00:10:22.566Z,39.40
2022-10-01T00:10:45.281Z,40.30
2022-10-01T00:11:09.611Z,39.40
2022-10-01T00:11:34.562Z,39.80
2022-10-01T00:12:00.168Z,40.50
2022-10-01T00:12:22.886Z,41.00
2022-10-01T00:12:47.121Z,41.00
2022-10-01T00:13:09.956Z,41.50
2022-10-01T00:13:33.226Z,41.40
2022-10-01T00:13:55.992Z,40.60
2022-10-01T00:14:19.386Z,41.40
2022-10-01T00:14:42.045Z,41.30
2022-10-01T00:15:13.359Z,41.60
2022-10-01T00:15:38.930Z,41.90
2022-10-01T00:16:04.257Z,42.00
2022-10-01T00:16:28.207Z,42.40
2022-10-01T00:16:51.186Z,43.20
2022-10-01T00:17:14.104Z,43.40
2022-10-01T00:17:37.172Z,43.50
2022-10-01T00:18:01.210Z,44.20
2022-10-01T00:18:23.861Z,44.20
2022-10-01T00:18:47.057Z,44.20
2022-10-01T00:19:13.136Z,44.60
2022-10-01T00:19:35.886Z,45.30
2022-10-01T00:19:58.577Z,44.70
2022-10-01T00:20:21.392Z,44.80
2022-10-01T00:20:44.037Z,44.40
2022-10-01T00:21:08.017Z,44.40
2022-10-01T00:21:32.075Z,44.60
2022-10-01T00:21:55.152Z,44.20
2022-10-01T00:22:19.136Z,45.00
2022-10-01T00:22:41.815Z,44.10
2022-10-01T00:23:04.530Z,43.40
2022-10-01T00:23:27.166Z,43.70
2022-10-01T00:23:55.434Z,44.70
2022-10-01T00:24:19.102Z,45.90
2022-10-01T00:24:41.796Z,45.50
2022-10-01T00:25:05.590Z,44.50
2022-10-01T00:25:29.453Z,44.50
2022-10-01T00:25:53.777Z,44.50
2022-10-01T00:26:17.375Z,44.90
2022-10-01T00:26:40.076Z,45.60
2022-10-01T00:27:02.911Z,45.20
2022-10-01T00:27:25.591Z,46.10
2022-10-01T00:27:49.337Z,46.40
2022-10-01T00:28:12.343Z,46.00
2022-10-01T00:28:35.281Z,46.60
2022-10-01T00:28:59.211Z,46.00
2022-10-01T00:29:21.976Z,45.20
2022-10-01T00:29:45.446Z,45.30
2022-10-01T00:30:10.156Z,45.60
2022-10-01T00:30:40.146Z,45.70
2022-10-01T00:31:03.294Z,46.10
2022-10-01T00:31:26.333Z,46.70
2022-10-01T00:31:49.280Z,46.40
2022-10-01T00:32:12.231Z,46.80
2022-10-01T00:32:34.978Z,47.40
2022-10-01T00:32:57.691Z,47.40
2022-10-01T00:33:21.751Z,47.90
2022-10-01T00:33:44.476Z,48.00
2022-10-01T00:34:07.232Z,48.60
2022-10-01T00:34:29.971Z,48.80
2022-10-01T00:34:53.918Z,48.70
2022-10-01T00:35:16.721Z,48.70
2022-10-01T00:35:39.482Z,49.70
2022-10-01T00:36:02.580Z,49.80
2022-10-01T00:36:25.357Z,49.70
2022-10-01T00:36:48.105Z,50.30
2022-10-01T00:37:10.880Z,50.90
2022-10-01T00:37:35.522Z,49.80
2022-10-01T00:37:58.202Z,50.40
2022-10-01T00:38:20.959Z,49.70
2022-10-01T00:38:44.011Z,50.30
2022-10-01T00:39:06.761Z,50.10
2022-10-01T00:39:29.520Z,50.10
2022-10-01T00:39:52.345Z,50.00
2022-10-01T00:40:15.100Z,49.80
2022-10-01T00:40:37.770Z,50.20
2022-10-01T00:41:00.634Z,50.20
2022-10-01T00:41:23.355Z,50.20
2022-10-01T00:41:46.762Z,50.50
2022-10-01T00:42:18.324Z,50.40
2022-10-01T00:42:42.121Z,50.20
2022-10-01T00:43:20.174Z,50.70
2022-10-01T00:43:45.130Z,50.70
2022-10-01T00:44:29.457Z,49.80
2022-10-01T00:44:53.605Z,50.00
2022-10-01T00:45:16.558Z,49.40
2022-10-01T00:45:39.815Z,48.60
2022-10-01T00:46:03.946Z,48.40
2022-10-01T00:46:28.165Z,48.80
2022-10-01T00:46:50.968Z,49.30
2022-10-01T00:47:21.531Z,50.70
2022-10-01T00:47:47.397Z,51.50
2022-10-01T00:48:10.097Z,50.80
2022-10-01T00:48:37.934Z,50.70
2022-10-01T00:49:01.577Z,50.40
2022-10-01T00:49:25.146Z,50.00
2022-10-01T00:49:47.877Z,49.60
2022-10-01T00:50:13.632Z,49.60
2022-10-01T00:50:38.257Z,50.10
2022-10-01T00:51:01.012Z,50.70
2022-10-01T00:51:24.337Z,50.90
2022-10-01T00:51:49.204Z,50.50
2022-10-01T00:52:15.218Z,50.20
2022-10-01T00:52:39.966Z,49.70
2022-10-01T00:53:05.286Z,50.60
2022-10-01T00:53:27.901Z,50.10
2022-10-01T00:53:50.880Z,50.20
2022-10-01T00:54:15.093Z,50.40
2022-10-01T00:54:39.964Z,51.30
2022-10-01T00:55:05.455Z,51.80
2022-10-01T00:55:30.885Z,51.30
2022-10-01T00:55:55.322Z,50.30
2022-10-01T00:56:18.710Z,50.50
2022-10-01T00:56:41.671Z,50.90
2022-10-01T00:57:04.356Z,50.40
2022-10-01T00:57:27.246Z,50.70
2022-10-01T00:57:50.299Z,50.80
2022-10-01T00:58:13.385Z,51.20
2022-10-01T00:58:36.220Z,51.50
2022-10-01T00:58:59.910Z,52.00
2022-10-01T00:59:22.635Z,52.70
2022-10-01T00:59:46.075Z,54.00
2022-10-01T01:00:11.046Z,53.50
2022-10-01T01:00:33.783Z,53.50
2022-10-01T01:00:59.298Z,53.70
2022-10-01T01:01:22.474Z,53.80
2022-10-01T01:01:45.813Z,54.00
2022-10-01T01:02:11.121Z,54.00
2022-10-01T01:02:33.923Z,54.00
2022-10-01T01:02:56.839Z,54.50
2022-10-01T01:03:19.607Z,54.80
2022-10-01T01:03:43.724Z,55.00
2022-10-01T01:04:16.823Z,55.00
2022-10-01T01:04:40.164Z,55.40
2022-10-01T01:05:03.040Z,55.80
2022-10-01T01:05:26.889Z,55.70
2022-10-01T01:05:50.370Z,55.30
2022-10-01T01:06:13.079Z,55.30
2022-10-01T01:06:35.819Z,55.50
2022-10-01T01:06:59.507Z,55.10
2022-10-01T01:07:22.185Z,55.30
2022-10-01T01:07:46.721Z,55.60
2022-10-01T01:08:09.426Z,55.60
2022-10-01T01:08:32.839Z,55.60
2022-10-01T01:08:55.689Z,55.60
2022-10-01T01:09:18.369Z,56.00
2022-10-01T01:09:42.429Z,55.90
2022-10-01T01:10:05.598Z,55.90
2022-10-01T01:10:30.690Z,56.10
2022-10-01T01:10:56.669Z,56.10
2022-10-01T01:11:23.281Z,56.70
2022-10-01T01:11:48.512Z,56.90
2022-10-01T01:12:17.426Z,56.80
2022-10-01T01:12:57.914Z,56.80
2022-10-01T01:13:24.280Z,56.80
2022-10-01T01:13:51.100Z,56.70
2022-10-01T01:14:16.639Z,57.00
2022-10-01T01:14:42.550Z,57.30
2022-10-01T01:15:11.841Z,57.60
2022-10-01T01:15:36.944Z,57.90
2022-10-01T01:16:03.675Z,57.90
2022-10-01T01:16:29.303Z,57.90
2022-10-01T01:16:54.401Z,58.00
2022-10-01T01:17:21.571Z,58.10
2022-10-01T01:17:50.880Z,58.40
2022-10-01T01:18:16.137Z,58.20
2022-10-01T01:18:42.318Z,57.90
2022-10-01T01:19:10.721Z,57.90
2022-10-01T01:19:43.531Z,58.00
2022-10-01T01:20:16.941Z,58.00
2022-10-01T01:21:04.822Z,58.40
2022-10-01T01:21:29.122Z,58.70
2022-10-01T01:21:53.293Z,58.60
2022-10-01T01:22:16.128Z,58.00
2022-10-01T01:22:41.921Z,57.70
2022-10-01T01:23:10.252Z,58.00
2022-10-01T01:24:01.997Z,58.40
2022-10-01T01:24:41.449Z,58.10
2022-10-01T01:25:05.027Z,58.20
2022-10-01T01:25:30.336Z,58.20
2022-10-01T01:25:55.861Z,58.40
2022-10-01T01:26:25.304Z,58.20
2022-10-01T01:26:59.524Z,58.40
2022-10-01T01:27:31.666Z,58.70
2022-10-01T01:28:04.684Z,58.80
2022-10-01T01:28:31.911Z,59.00
2022-10-01T01:28:56.825Z,59.30
2022-10-01T01:29:22.234Z,59.50
2022-10-01T01:29:46.915Z,59.60
2022-10-01T01:30:11.071Z,59.60
2022-10-01T01:30:33.807Z,59.90
2022-10-01T01:30:57.072Z,60.30
2022-10-01T01:31:23.759Z,60.30
2022-10-01T01:31:46.710Z,60.40
2022-10-01T01:32:14.834Z,60.30
2022-10-01T01:32:46.471Z,60.50
2022-10-01T01:33:12.149Z,60.50
2022-10-01T01:33:35.678Z,60.60
2022-10-01T01:33:59.427Z,60.80
2022-10-01T01:34:24.268Z,60.90
2022-10-01T01:34:47.605Z,61.30
2022-10-01T01:35:10.876Z,61.60
2022-10-01T01:35:35.140Z,61.30
2022-10-01T01:35:59.691Z,61.20
2022-10-01T01:36:26.227Z,61.30
2022-10-01T01:36:53.280Z,61.60
2022-10-01T01:37:18.225Z,62.00
2022-10-01T01:37:45.340Z,61.80
2022-10-01T01:38:10.595Z,61.70
2022-10-01T01:38:38.587Z,61.70
2022-10-01T01:39:04.501Z,62.00
2022-10-01T01:39:28.408Z,62.10
2022-10-01T01:39:52.073Z,61.80
2022-10-01T01:40:14.860Z,61.80
2022-10-01T01:40:38.104Z,61.90
2022-10-01T01:41:01.741Z,62.00
2022-10-01T01:41:26.225Z,62.10
2022-10-01T01:41:51.664Z,62.20
2022-10-01T01:42:16.314Z,62.50
2022-10-01T01:42:41.184Z,62.60
2022-10-01T01:43:06.698Z,62.50
2022-10-01T01:43:33.599Z,62.10
2022-10-01T01:43:58.089Z,62.10
2022-10-01T01:44:22.323Z,62.00
2022-10-01T01:44:46.264Z,61.40
2022-10-01T01:45:11.054Z,61.10
2022-10-01T01:45:33.840Z,60.80
2022-10-01T01:45:58.621Z,61.00
2022-10-01T01:46:21.324Z,61.30
2022-10-01T01:46:46.289Z,60.70
2022-10-01T01:47:10.581Z,61.20
2022-10-01T01:47:34.565Z,60.60
2022-10-01T01:47:58.404Z,61.10
2022-10-01T01:48:21.889Z,61.10
2022-10-01T01:48:47.576Z,61.20
2022-10-01T01:49:10.397Z,61.10
2022-10-01T01:49:33.052Z,61.40
2022-10-01T01:49:55.765Z,61.40
2022-10-01T01:50:19.048Z,61.50
2022-10-01T01:50:45.113Z,61.30
2022-10-01T01:51:11.763Z,61.40
2022-10-01T01:51:36.910Z,61.40
2022-10-01T01:52:04.987Z,61.50
2022-10-01T01:52:27.867Z,61.80
2022-10-01T01:52:50.527Z,62.10
2022-10-01T01:53:15.258Z,61.90
2022-10-01T01:53:38.049Z,61.40
2022-10-01T01:54:00.682Z,61.80
2022-10-01T01:54:23.428Z,61.20
2022-10-01T01:54:49.915Z,61.20
2022-10-01T01:55:12.773Z,61.60
2022-10-01T01:55:35.525Z,61.30
2022-10-01T01:56:00.479Z,61.10
2022-10-01T01:56:23.538Z,60.90
2022-10-01T01:56:46.299Z,60.30
2022-10-01T01:57:08.968Z,60.60
2022-10-01T01:57:33.606Z,60.60
2022-10-01T01:57:56.311Z,60.70
2022-10-01T01:58:20.538Z,60.80
2022-10-01T01:58:43.237Z,60.70
2022-10-01T01:59:06.057Z,60.50
2022-10-01T01:59:28.827Z,60.70
2022-10-01T01:59:51.528Z,61.20
2022-10-01T02:00:14.569Z,61.20
2022-10-01T02:00:39.928Z,60.80
2022-10-01T02:01:02.729Z,60.50
2022-10-01T02:01:36.262Z,60.90
2022-10-01T02:01:59.697Z,60.80
2022-10-01T02:02:24.381Z,60.20
2022-10-01T02:02:49.324Z,60.20
2022-10-01T02:03:12.147Z,61.00
2022-10-01T02:03:34.936Z,60.70
2022-10-01T02:03:58.614Z,61.00
2022-10-01T02:04:23.092Z,60.40
2022-10-01T02:04:47.383Z,60.50
2022-10-01T02:05:11.082Z,60.10
2022-10-01T02:05:38.918Z,60.80
2022-10-01T02:06:07.492Z,60.90
2022-10-01T02:06:34.197Z,60.50
2022-10-01T02:07:16.323Z,59.70
2022-10-01T02:08:13.113Z,59.90
2022-10-01T02:08:38.172Z,60.80
2022-10-01T02:09:03.031Z,60.40
2022-10-01T02:09:28.732Z,60.50
2022-10-01T02:09:53.555Z,60.40
2022-10-01T02:10:22.871Z,60.30
2022-10-01T02:10:59.833Z,60.80
2022-10-01T02:11:25.690Z,60.80
2022-10-01T02:11:54.707Z,60.90
2022-10-01T02:12:24.487Z,60.40
2022-10-01T02:12:53.924Z,61.20
2022-10-01T02:13:25.867Z,60.00
2022-10-01T02:13:55.573Z,60.20
2022-10-01T02:14:24.572Z,60.20
2022-10-01T02:14:50.607Z,60.10
2022-10-01T02:15:17.309Z,60.60
2022-10-01T02:15:46.124Z,61.00
2022-10-01T02:16:15.138Z,60.90
2022-10-01T02:16:43.283Z,61.10
2022-10-01T02:17:09.000Z,59.60
2022-10-01T02:17:34.758Z,59.20
2022-10-01T02:17:59.667Z,59.40
2022-10-01T02:18:26.395Z,60.00
2022-10-01T02:18:51.630Z,60.40
2022-10-01T02:19:19.540Z,59.80
2022-10-01T02:19:44.812Z,59.50
2022-10-01T02:20:10.411Z,58.80
2022-10-01T02:20:36.359Z,58.40
2022-10-01T02:21:03.739Z,57.90
2022-10-01T02:21:30.728Z,58.10
2022-10-01T02:21:59.104Z,57.00
2022-10-01T02:22:23.094Z,56.40
2022-10-01T02:22:48.315Z,56.30
2022-10-01T02:23:13.503Z,56.30
2022-10-01T02:23:38.584Z,56.90
2022-10-01T02:24:02.887Z,57.10
2022-10-01T02:24:30.083Z,57.10
2022-10-01T02:24:57.141Z,57.30
2022-10-01T02:25:20.704Z,57.40
2022-10-01T02:25:45.666Z,57.30
2022-10-01T02:26:10.774Z,57.30
2022-10-01T02:26:33.427Z,56.20
2022-10-01T02:26:56.149Z,56.50
2022-10-01T02:27:20.643Z,56.30
2022-10-01T02:27:45.385Z,56.30
2022-10-01T02:28:08.950Z,56.20
2022-10-01T02:28:33.124Z,55.60
2022-10-01T02:28:59.594Z,55.00
2022-10-01T02:29:25.300Z,54.90
2022-10-01T02:29:48.071Z,55.00
2022-10-01T02:30:11.731Z,54.40
2022-10-01T02:30:36.014Z,55.10
2022-10-01T02:31:00.911Z,55.30
2022-10-01T02:31:24.045Z,55.40
2022-10-01T02:31:47.421Z,55.20
2022-10-01T02:32:12.657Z,54.90
2022-10-01T02:32:35.581Z,54.60
2022-10-01T02:32:59.399Z,54.20
2022-10-01T02:33:23.841Z,53.80
2022-10-01T02:33:46.590Z,54.00
2022-10-01T02:34:12.418Z,54.20
2022-10-01T02:34:35.668Z,54.40
2022-10-01T02:34:58.382Z,54.70
2022-10-01T02:35:22.065Z,54.90
2022-10-01T02:35:45.442Z,54.80
2022-10-01T02:36:08.408Z,55.20
2022-10-01T02:36:31.272Z,54.80
2022-10-01T02:36:53.912Z,55.00
2022-10-01T02:37:17.263Z,54.70
2022-10-01T02:37:40.853Z,55.00
2022-10-01T02:38:05.747Z,54.80
2022-10-01T02:38:28.513Z,55.50
2022-10-01T02:38:51.418Z,56.00
2022-10-01T02:39:14.228Z,55.30
2022-10-01T02:39:37.037Z,54.30
2022-10-01T02:39:59.983Z,54.90
2022-10-01T02:40:26.392Z,54.70
2022-10-01T02:40:49.117Z,54.40
2022-10-01T02:41:13.252Z,54.50
2022-10-01T02:41:36.873Z,54.60
2022-10-01T02:41:59.826Z,55.20
2022-10-01T02:42:22.868Z,54.70
2022-10-01T02:42:47.046Z,54.70
2022-10-01T02:43:11.518Z,54.50
2022-10-01T02:43:42.705Z,54.40
2022-10-01T02:44:07.143Z,54.40
2022-10-01T02:44:38.032Z,54.80
2022-10-01T02:45:02.888Z,55.30
2022-10-01T02:45:27.840Z,55.80
2022-10-01T02:45:55.524Z,56.00
2022-10-01T02:46:20.671Z,56.30
2022-10-01T02:46:46.382Z,56.50
2022-10-01T02:47:12.243Z,55.60
2022-10-01T02:47:38.077Z,55.00
2022-10-01T02:48:02.332Z,54.70
2022-10-01T02:48:26.402Z,54.90
2022-10-01T02:48:49.104Z,54.80
2022-10-01T02:49:13.435Z,54.80
2022-10-01T02:49:40.248Z,54.80
2022-10-01T02:50:03.003Z,54.30
2022-10-01T02:50:27.566Z,53.70
2022-10-01T02:50:52.479Z,53.10
2022-10-01T02:51:25.982Z,52.70
2022-10-01T02:51:53.746Z,53.00
2022-10-01T02:52:20.691Z,52.80
2022-10-01T02:52:45.767Z,52.30
2022-10-01T02:53:11.339Z,50.50
2022-10-01T02:53:36.018Z,51.20
2022-10-01T02:54:01.569Z,50.70
2022-10-01T02:54:27.116Z,51.70
2022-10-01T02:54:52.471Z,50.80
2022-10-01T02:55:17.815Z,50.30
2022-10-01T02:55:41.918Z,51.00
2022-10-01T02:56:04.799Z,50.50
2022-10-01T02:56:48.808Z,50.00
2022-10-01T02:57:29.865Z,50.00
2022-10-01T02:57:52.503Z,48.00
2022-10-01T02:58:15.253Z,49.30
2022-10-01T02:58:39.457Z,50.50
2022-10-01T02:59:02.078Z,51.70
2022-10-01T02:59:24.797Z,52.20
2022-10-01T02:59:47.705Z,51.50
2022-10-01T03:00:11.947Z,51.00
2022-10-01T03:00:35.049Z,50.40
2022-10-01T03:00:57.790Z,49.50
2022-10-01T03:01:20.516Z,48.70
2022-10-01T03:01:43.290Z,48.00
2022-10-01T03:02:06.076Z,47.80
2022-10-01T03:02:29.883Z,48.20
2022-10-01T03:02:54.991Z,46.80
2022-10-01T03:03:17.774Z,47.00
2022-10-01T03:03:42.263Z,47.90
2022-10-01T03:04:04.972Z,48.00
2022-10-01T03:04:27.779Z,47.20
2022-10-01T03:04:53.336Z,47.50
2022-10-01T03:05:16.230Z,47.60
2022-10-01T03:05:38.985Z,49.00
2022-10-01T03:06:01.755Z,49.00
2022-10-01T03:06:24.379Z,48.30
2022-10-01T03:06:47.116Z,47.80
2022-10-01T03:07:09.952Z,48.30
2022-10-01T03:07:34.762Z,49.20
2022-10-01T03:07:57.756Z,49.20
2022-10-01T03:08:20.456Z,47.80
2022-10-01T03:08:43.174Z,47.30
2022-10-01T03:09:08.822Z,47.60
2022-10-01T03:09:31.886Z,45.40
2022-10-01T03:09:54.486Z,45.50
2022-10-01T03:10:17.295Z,46.30
2022-10-01T03:10:42.458Z,45.30
2022-10-01T03:11:09.529Z,44.90
2022-10-01T03:11:32.454Z,45.80
2022-10-01T03:11:55.357Z,46.20
2022-10-01T03:12:18.430Z,45.20
2022-10-01T03:12:42.616Z,43.70
2022-10-01T03:13:06.729Z,42.00
2022-10-01T03:13:29.436Z,41.40
2022-10-01T03:13:54.080Z,41.10
2022-10-01T03:14:19.885Z,41.60
2022-10-01T03:14:42.707Z,40.10
2022-10-01T03:15:07.375Z,42.70
2022-10-01T03:15:30.040Z,42.90
2022-10-01T03:15:53.002Z,43.70
2022-10-01T03:16:15.862Z,42.90
2022-10-01T03:16:38.695Z,43.10
2022-10-01T03:17:02.479Z,44.30
2022-10-01T03:17:25.126Z,42.90
2022-10-01T03:17:51.522Z,42.50
2022-10-01T03:18:14.225Z,43.80
2022-10-01T03:18:36.963Z,44.10
2022-10-01T03:18:59.700Z,44.80
2022-10-01T03:19:22.455Z,44.30
2022-10-01T03:19:45.192Z,45.40
2022-10-01T03:20:09.068Z,45.30
2022-10-01T03:20:31.834Z,46.50
2022-10-01T03:20:54.782Z,46.50
2022-10-01T03:21:17.555Z,45.00
2022-10-01T03:21:40.241Z,45.00
2022-10-01T03:22:02.995Z,44.10
2022-10-01T03:22:25.715Z,43.50
2022-10-01T03:22:48.475Z,43.10
2022-10-01T03:23:11.120Z,43.50
2022-10-01T03:23:33.860Z,42.00
2022-10-01T03:23:56.631Z,40.90
2022-10-01T03:24:19.350Z,39.30
2022-10-01T03:24:42.092Z,38.20
2022-10-01T03:25:05.445Z,38.10
2022-10-01T03:25:28.215Z,38.20
2022-10-01T03:25:51.101Z,38.50
2022-10-01T03:26:13.931Z,41.40
2022-10-01T03:26:36.635Z,40.10
2022-10-01T03:26:59.326Z,40.80
2022-10-01T03:27:22.105Z,40.60
2022-10-01T03:27:46.834Z,41.40
2022-10-01T03:28:09.647Z,40.10
2022-10-01T03:28:32.490Z,41.20
2022-10-01T03:28:56.555Z,42.00
2022-10-01T03:29:19.355Z,40.30
2022-10-01T03:29:42.100Z,39.80
2022-10-01T03:30:05.930Z,39.70
2022-10-01T03:30:28.629Z,39.10
2022-10-01T03:30:51.350Z,39.90
2022-10-01T03:31:14.117Z,39.90
2022-10-01T03:31:38.518Z,40.00
2022-10-01T03:32:01.778Z,39.90
2022-10-01T03:32:24.683Z,42.00
2022-10-01T03:32:47.355Z,41.90
2022-10-01T03:33:10.084Z,41.50
2022-10-01T03:33:32.780Z,39.10
2022-10-01T03:33:57.951Z,38.40
2022-10-01T03:34:20.768Z,40.10
2022-10-01T03:34:43.465Z,42.70
2022-10-01T03:35:07.914Z,42.10
2022-10-01T03:35:32.076Z,43.00
2022-10-01T03:35:55.380Z,44.00
2022-10-01T03:36:18.078Z,45.10
2022-10-01T03:36:40.861Z,46.50
2022-10-01T03:37:03.861Z,45.90
2022-10-01T03:37:26.616Z,45.70
2022-10-01T03:37:49.620Z,44.50
2022-10-01T03:38:13.956Z,45.50
2022-10-01T03:38:36.646Z,46.20
2022-10-01T03:38:59.360Z,45.50
2022-10-01T03:39:22.831Z,44.50
2022-10-01T03:39:45.585Z,45.50
2022-10-01T03:40:09.416Z,45.70
2022-10-01T03:40:34.417Z,45.70
2022-10-01T03:40:59.960Z,46.40
2022-10-01T03:41:22.681Z,47.10
2022-10-01T03:41:45.380Z,45.90
2022-10-01T03:42:08.115Z,46.80
2022-10-01T03:42:30.821Z,46.60
2022-10-01T03:42:53.730Z,48.30
2022-10-01T03:43:16.498Z,50.00
2022-10-01T03:43:39.226Z,49.30
2022-10-01T03:44:03.514Z,49.00
2022-10-01T03:44:28.581Z,48.70
2022-10-01T03:44:51.360Z,48.60
2022-10-01T03:45:14.183Z,48.40
2022-10-01T03:45:36.895Z,48.00
2022-10-01T03:45:59.580Z,48.00
2022-10-01T03:46:22.460Z,48.40
2022-10-01T03:46:45.279Z,49.40
2022-10-01T03:47:08.009Z,50.60
2022-10-01T03:47:30.733Z,51.90
2022-10-01T03:47:55.871Z,51.60
2022-10-01T03:48:18.717Z,51.30
2022-10-01T03:48:41.441Z,50.40
2022-10-01T03:49:04.480Z,50.40
2022-10-01T03:49:27.999Z,49.30
2022-10-01T03:49:50.722Z,50.20
2022-10-01T03:50:13.952Z,50.00
2022-10-01T03:50:36.795Z,49.60
2022-10-01T03:50:59.782Z,49.70
2022-10-01T03:51:22.408Z,49.80
2022-10-01T03:51:45.699Z,49.90
2022-10-01T03:52:08.430Z,49.90
2022-10-01T03:52:31.221Z,50.30
2022-10-01T03:52:53.910Z,50.10
2022-10-01T03:53:16.690Z,51.50
2022-10-01T03:53:39.365Z,50.80
2022-10-01T03:54:02.094Z,50.90
2022-10-01T03:54:25.574Z,51.50
2022-10-01T03:54:48.297Z,51.80
2022-10-01T03:55:11.091Z,51.60
2022-10-01T03:55:33.842Z,51.80
2022-10-01T03:55:56.558Z,51.90
2022-10-01T03:56:19.307Z,49.80
2022-10-01T03:56:42.729Z,48.30
2022-10-01T03:57:06.123Z,49.30
2022-10-01T03:57:28.905Z,49.30
2022-10-01T03:57:51.608Z,48.20
2022-10-01T03:58:14.228Z,47.50
2022-10-01T03:58:36.958Z,48.30
2022-10-01T03:58:59.661Z,47.60
2022-10-01T03:59:24.002Z,47.80
2022-10-01T03:59:46.722Z,46.50
2022-10-01T04:00:12.058Z,47.30
2022-10-01T04:00:34.947Z,47.60
2022-10-01T04:00:58.109Z,48.00
2022-10-01T04:01:20.921Z,48.20
2022-10-01T04:01:43.840Z,49.90
2022-10-01T04:02:07.915Z,50.10
2022-10-01T04:02:30.761Z,51.60
2022-10-01T04:02:53.666Z,51.10
2022-10-01T04:03:16.421Z,51.00
2022-10-01T04:03:39.184Z,50.60
2022-10-01T04:04:02.213Z,51.00
2022-10-01T04:04:29.079Z,50.00
2022-10-01T04:04:51.997Z,49.50
2022-10-01T04:05:15.414Z,48.70
2022-10-01T04:05:39.226Z,49.40
2022-10-01T04:06:01.888Z,50.20
2022-10-01T04:06:24.643Z,50.70
2022-10-01T04:06:47.523Z,51.90
2022-10-01T04:07:10.178Z,52.60
2022-10-01T04:07:32.829Z,52.50
2022-10-01T04:07:55.518Z,52.40
2022-10-01T04:08:23.434Z,51.40
2022-10-01T04:08:47.211Z,49.20
2022-10-01T04:09:10.254Z,48.90
2022-10-01T04:09:32.934Z,49.60
2022-10-01T04:09:55.692Z,50.90
2022-10-01T04:10:18.426Z,50.50
2022-10-01T04:10:41.278Z,51.10
2022-10-01T04:11:03.913Z,50.60
2022-10-01T04:11:26.638Z,50.60
2022-10-01T04:11:49.640Z,50.40
2022-10-01T04:12:12.677Z,50.50
2022-10-01T04:12:35.358Z,50.80
2022-10-01T04:12:58.636Z,51.70
2022-10-01T04:13:21.297Z,51.00
2022-10-01T04:13:44.032Z,52.10
2022-10-01T04:14:06.852Z,51.80
2022-10-01T04:14:31.044Z,50.30
2022-10-01T04:14:53.732Z,50.20
2022-10-01T04:15:16.998Z,50.30
2022-10-01T04:15:40.351Z,51.10
2022-10-01T04:16:03.335Z,50.40
2022-10-01T04:16:26.280Z,50.10
2022-10-01T04:16:52.789Z,49.50
2022-10-01T04:17:15.719Z,49.60
2022-10-01T04:17:40.682Z,47.80
2022-10-01T04:18:06.343Z,47.70
2022-10-01T04:18:29.102Z,49.20
2022-10-01T04:18:51.801Z,49.10
2022-10-01T04:19:14.488Z,47.50
2022-10-01T04:19:39.656Z,46.80
2022-10-01T04:20:02.405Z,47.20
2022-10-01T04:20:25.381Z,47.40
2022-10-01T04:20:48.163Z,47.60
2022-10-01T04:21:12.819Z,48.80
2022-10-01T04:21:37.283Z,49.50
2022-10-01T04:22:00.350Z,50.10
2022-10-01T04:22:23.205Z,50.50
2022-10-01T04:22:47.192Z,50.70
2022-10-01T04:23:09.890Z,50.50
2022-10-01T04:23:32.618Z,50.70
2022-10-01T04:23:55.350Z,51.00
2022-10-01T04:24:18.130Z,51.20
2022-10-01T04:24:40.831Z,52.10
2022-10-01T04:25:03.888Z,52.00
2022-10-01T04:25:26.775Z,51.40
2022-10-01T04:25:49.535Z,49.90
2022-10-01T04:26:12.315Z,50.00
2022-10-01T04:26:35.016Z,50.40
2022-10-01T04:26:57.837Z,50.60
2022-10-01T04:27:20.467Z,49.90
2022-10-01T04:27:55.442Z,50.40
2022-10-01T04:28:18.357Z,50.80
2022-10-01T04:28:41.102Z,51.00
2022-10-01T04:29:03.893Z,51.60
2022-10-01T04:29:26.679Z,52.00
2022-10-01T04:29:50.786Z,52.20
2022-10-01T04:30:13.563Z,52.50
2022-10-01T04:30:37.455Z,52.00
2022-10-01T04:31:19.150Z,53.10
2022-10-01T04:31:41.954Z,52.10
2022-10-01T04:32:04.882Z,51.00
2022-10-01T04:32:28.015Z,51.80
2022-10-01T04:32:51.686Z,52.20
2022-10-01T04:33:15.521Z,50.20
2022-10-01T04:33:38.160Z,49.50
2022-10-01T04:34:03.670Z,49.60
2022-10-01T04:34:46.357Z,51.20
2022-10-01T04:35:11.731Z,51.70
2022-10-01T04:35:34.657Z,49.40
2022-10-01T04:35:57.337Z,47.30
2022-10-01T04:36:20.654Z,46.50
2022-10-01T04:36:43.377Z,46.00
2022-10-01T04:37:05.992Z,46.80
2022-10-01T04:37:28.912Z,45.30
2022-10-01T04:37:56.948Z,44.70
2022-10-01T04:38:19.676Z,45.60
2022-10-01T04:38:43.073Z,46.70
2022-10-01T04:39:05.902Z,46.70
2022-10-01T04:39:28.642Z,47.70
2022-10-01T04:39:51.457Z,47.00
2022-10-01T04:40:14.175Z,46.10
2022-10-01T04:40:39.681Z,46.30
2022-10-01T04:41:02.562Z,45.90
2022-10-01T04:41:26.206Z,44.20
2022-10-01T04:41:52.171Z,43.90
2022-10-01T04:42:14.914Z,42.60
2022-10-01T04:42:40.835Z,42.70
2022-10-01T04:43:04.101Z,44.00
2022-10-01T04:43:26.917Z,44.00
2022-10-01T04:43:49.833Z,44.30
2022-10-01T04:44:12.780Z,45.60
2022-10-01T04:44:35.965Z,46.40
2022-10-01T04:45:01.115Z,47.90
2022-10-01T04:45:23.809Z,46.50
2022-10-01T04:45:46.540Z,47.00
2022-10-01T04:46:09.279Z,46.80
2022-10-01T04:46:32.137Z,45.30
2022-10-01T04:46:54.918Z,45.40
2022-10-01T04:47:17.778Z,45.30
2022-10-01T04:47:48.610Z,47.00
2022-10-01T04:48:11.350Z,47.00
2022-10-01T04:48:34.026Z,46.00
2022-10-01T04:48:56.807Z,46.10
2022-10-01T04:49:19.520Z,47.30
2022-10-01T04:49:42.245Z,48.30
2022-10-01T04:50:05.948Z,47.80
2022-10-01T04:50:31.521Z,49.00
2022-10-01T04:50:54.236Z,48.50
2022-10-01T04:51:17.180Z,48.50
2022-10-01T04:51:39.994Z,48.30
2022-10-01T04:52:03.130Z,48.40
2022-10-01T04:52:26.131Z,49.30
2022-10-01T04:52:48.784Z,49.80
2022-10-01T04:53:11.560Z,47.80
2022-10-01T04:53:34.235Z,46.90
2022-10-01T04:53:59.914Z,47.60
2022-10-01T04:54:22.594Z,48.00
2022-10-01T04:54:45.300Z,48.90
2022-10-01T04:55:08.901Z,49.00
2022-10-01T04:55:31.670Z,48.70
2022-10-01T04:55:54.397Z,48.90
2022-10-01T04:56:17.204Z,49.50
2022-10-01T04:56:39.929Z,49.60
2022-10-01T04:57:02.624Z,49.40
2022-10-01T04:57:25.320Z,49.10
2022-10-01T04:57:48.068Z,49.20
2022-10-01T04:58:10.761Z,48.40
2022-10-01T04:58:33.420Z,48.80
2022-10-01T04:58:56.157Z,49.60
2022-10-01T04:59:19.529Z,50.30
2022-10-01T04:59:42.251Z,51.00
2022-10-01T05:00:08.039Z,50.80
2022-10-01T05:00:33.282Z,50.70
2022-10-01T05:01:01.054Z,50.90
2022-10-01T05:01:25.378Z,50.70
2022-10-01T05:01:48.305Z,50.00
2022-10-01T05:02:11.078Z,50.00
2022-10-01T05:02:34.775Z,49.90
2022-10-01T05:02:58.531Z,50.60
2022-10-01T05:03:21.402Z,51.50
2022-10-01T05:03:44.146Z,51.10
2022-10-01T05:04:06.872Z,50.90
2022-10-01T05:04:29.818Z,51.10
2022-10-01T05:04:52.479Z,50.70
2022-10-01T05:05:15.698Z,51.30
2022-10-01T05:05:39.028Z,51.30
2022-10-01T05:06:02.107Z,51.90
2022-10-01T05:06:24.791Z,52.30
2022-10-01T05:06:47.406Z,51.10
2022-10-01T05:07:10.175Z,51.80
2022-10-01T05:07:32.971Z,51.50
2022-10-01T05:07:55.830Z,51.70
2022-10-01T05:08:18.501Z,52.30
2022-10-01T05:08:41.325Z,52.10
2022-10-01T05:09:04.520Z,51.60
2022-10-01T05:09:27.205Z,51.60
2022-10-01T05:09:49.925Z,52.40
2022-10-01T05:10:13.569Z,52.30
2022-10-01T05:10:36.696Z,51.90
2022-10-01T05:11:00.668Z,52.10
2022-10-01T05:11:23.367Z,51.80
2022-10-01T05:11:46.085Z,51.50
2022-10-01T05:12:09.776Z,51.90
2022-10-01T05:12:32.505Z,52.30
2022-10-01T05:12:55.196Z,52.50
2022-10-01T05:13:17.929Z,53.00
2022-10-01T05:13:40.655Z,53.50